createdAt,value
2018-05-02T00:01:59.356Z,98780.27
2018-05-02T00:04:27.257Z,98783.39
2018-05-02T00:06:54.808Z,98779.83
2018-05-02T00:09:22.608Z,98783.52
2018-05-02T00:11:50.197Z,98776.38
2018-05-02T00:14:17.760Z,98781.34
2018-05-02T00:16:45.376Z,98777.35
2018-05-02T00:19:13.179Z,98770.47
2018-05-02T00:21:40.749Z,98770.21
2018-05-02T00:24:08.349Z,98769.53
2018-05-02T00:26:36.109Z,98776.80
2018-05-02T00:29:03.744Z,98774.39
2018-05-02T00:31:31.274Z,98768.91
2018-05-02T00:33:58.884Z,98773.09
2018-05-02T00:36:26.461Z,98767.62
2018-05-02T00:38:54.032Z,98769.84
2018-05-02T00:41:21.653Z,98761.13
2018-05-02T00:43:49.216Z,98763.03
2018-05-02T00:46:17.776Z,98733.13
2018-05-02T00:48:57.285Z,98755.41
2018-05-02T00:51:24.958Z,98762.30
2018-05-02T00:53:52.715Z,98764.19
2018-05-02T00:56:20.494Z,98772.94
2018-05-02T00:58:48.053Z,98759.00
2018-05-02T01:01:15.617Z,98762.85
2018-05-02T01:03:43.167Z,98760.00
2018-05-02T01:06:10.907Z,98756.31
2018-05-02T01:08:38.463Z,98754.48
2018-05-02T01:11:06.153Z,98748.97
2018-05-02T01:13:33.798Z,98755.61
2018-05-02T01:16:01.538Z,98750.50
2018-05-02T01:18:29.356Z,98757.55
2018-05-02T01:20:57.047Z,98753.83
2018-05-02T01:23:24.793Z,98759.31
2018-05-02T01:25:52.416Z,98755.97
2018-05-02T01:28:20.000Z,98760.17
2018-05-02T01:30:47.753Z,98758.60
2018-05-02T01:33:15.465Z,98753.22
2018-05-02T01:35:43.284Z,98748.09
2018-05-02T01:38:10.852Z,98755.34
2018-05-02T01:40:38.512Z,98751.11
2018-05-02T01:43:06.323Z,98755.44
2018-05-02T01:45:33.920Z,98760.88
2018-05-02T01:48:01.777Z,98759.09
2018-05-02T01:50:29.498Z,98758.16
2018-05-02T01:52:57.213Z,98763.25
2018-05-02T01:55:24.788Z,98761.20
2018-05-02T01:57:52.934Z,98765.20
2018-05-02T02:00:20.738Z,98765.73
2018-05-02T02:02:48.338Z,98766.55
2018-05-02T02:05:16.071Z,98771.64
2018-05-02T02:07:43.640Z,98767.11
2018-05-02T02:10:11.249Z,98760.11
2018-05-02T02:12:38.825Z,98760.55
2018-05-02T02:15:06.446Z,98759.98
2018-05-02T02:17:34.297Z,98763.48
2018-05-02T02:20:01.865Z,98755.69
2018-05-02T02:22:29.637Z,98766.28
2018-05-02T02:24:57.213Z,98766.84
2018-05-02T02:27:24.971Z,98764.94
2018-05-02T02:29:52.705Z,98770.30
2018-05-02T02:32:20.258Z,98775.30
2018-05-02T02:34:48.094Z,98771.52
2018-05-02T02:37:15.744Z,98768.20
2018-05-02T02:39:43.305Z,98772.31
2018-05-02T02:42:11.082Z,98778.17
2018-05-02T02:44:38.896Z,98782.05
2018-05-02T02:47:06.490Z,98779.73
2018-05-02T02:49:34.053Z,98784.02
2018-05-02T02:52:01.639Z,98790.93
2018-05-02T02:54:29.241Z,98798.55
2018-05-02T02:56:57.087Z,98796.42
2018-05-02T02:59:24.685Z,98796.85
2018-05-02T03:01:52.403Z,98797.22
2018-05-02T03:04:20.114Z,98798.91
2018-05-02T03:06:47.751Z,98798.91
2018-05-02T03:09:15.332Z,98802.61
2018-05-02T03:11:42.905Z,98801.64
2018-05-02T03:14:10.490Z,98794.06
2018-05-02T03:16:38.108Z,98796.72
2018-05-02T03:19:05.780Z,98790.63
2018-05-02T03:21:33.356Z,98756.66
2018-05-02T03:24:00.939Z,98796.98
2018-05-02T03:26:28.673Z,98802.64
2018-05-02T03:28:56.523Z,98799.52
2018-05-02T03:31:24.342Z,98801.77
2018-05-02T03:33:51.950Z,98802.74
2018-05-02T03:36:19.733Z,98798.38
2018-05-02T03:38:47.410Z,98801.50
2018-05-02T03:41:15.214Z,98804.66
2018-05-02T03:43:42.946Z,98804.66
2018-05-02T03:46:10.481Z,98810.60
2018-05-02T03:48:38.269Z,98812.68
2018-05-02T03:51:06.086Z,98823.08
2018-05-02T03:53:33.656Z,98821.22
2018-05-02T03:56:01.290Z,98821.91
2018-05-02T03:58:28.848Z,98820.25
2018-05-02T04:01:08.148Z,98825.31
2018-05-02T04:03:47.749Z,98827.03
2018-05-02T04:06:35.320Z,98833.80
2018-05-02T04:09:02.912Z,98834.50
2018-05-02T04:11:30.568Z,98840.86
2018-05-02T04:13:58.300Z,98836.45
2018-05-02T04:16:25.994Z,98844.94
2018-05-02T04:18:53.580Z,98855.81
2018-05-02T04:21:21.179Z,98850.55
2018-05-02T04:23:48.972Z,98844.88
2018-05-02T04:26:16.558Z,98855.22
2018-05-02T04:28:44.279Z,98856.66
2018-05-02T04:31:11.950Z,98859.96
2018-05-02T04:33:39.748Z,98861.39
2018-05-02T04:36:07.373Z,98865.20
2018-05-02T04:38:34.941Z,98867.74
2018-05-02T04:41:02.608Z,98868.22
2018-05-02T04:43:30.435Z,98863.84
2018-05-02T04:45:57.993Z,98863.20
2018-05-02T04:48:25.631Z,98864.08
2018-05-02T04:50:53.372Z,98870.84
2018-05-02T04:53:21.073Z,98871.72
2018-05-02T04:55:48.810Z,98878.56
2018-05-02T04:58:16.385Z,98881.14
2018-05-02T05:00:44.056Z,98876.43
2018-05-02T05:03:11.814Z,98879.87
2018-05-02T05:05:39.577Z,98883.05
2018-05-02T05:08:07.194Z,98886.53
2018-05-02T05:10:35.027Z,98884.62
2018-05-02T05:13:02.654Z,98884.12
2018-05-02T05:15:30.230Z,98885.34
2018-05-02T05:17:57.972Z,98883.39
2018-05-02T05:20:25.541Z,98882.77
2018-05-02T05:22:53.293Z,98886.24
2018-05-02T05:25:20.908Z,98883.25
2018-05-02T05:27:48.724Z,98878.52
2018-05-02T05:30:16.233Z,98880.29
2018-05-02T05:32:43.871Z,98881.81
2018-05-02T05:35:11.431Z,98879.97
2018-05-02T05:37:39.087Z,98881.84
2018-05-02T05:40:06.648Z,98883.00
2018-05-02T05:42:34.452Z,98881.12
2018-05-02T05:45:02.100Z,98874.50
2018-05-02T05:47:29.790Z,98880.09
2018-05-02T05:49:57.364Z,98874.55
2018-05-02T05:52:24.942Z,98877.44
2018-05-02T05:54:52.569Z,98880.34
2018-05-02T05:57:20.130Z,98879.06
2018-05-02T05:59:47.692Z,98874.77
2018-05-02T06:02:15.498Z,98876.39
2018-05-02T06:04:43.052Z,98877.75
2018-05-02T06:07:10.833Z,98877.45
2018-05-02T06:09:38.392Z,98871.09
2018-05-02T06:12:06.014Z,98885.47
2018-05-02T06:14:33.770Z,98878.02
2018-05-02T06:17:01.328Z,98873.65
2018-05-02T06:19:28.900Z,98878.44
2018-05-02T06:21:56.617Z,98866.95
2018-05-02T06:24:24.181Z,98863.27
2018-05-02T06:26:51.869Z,98858.30
2018-05-02T06:29:19.696Z,98859.20
2018-05-02T06:31:47.517Z,98859.17
2018-05-02T06:34:15.126Z,98856.97
2018-05-02T06:36:42.697Z,98852.88
2018-05-02T06:39:10.259Z,98851.38
2018-05-02T06:41:38.089Z,98858.03
2018-05-02T06:44:05.665Z,98851.70
2018-05-02T06:46:33.277Z,98855.44
2018-05-02T06:49:00.837Z,98850.69
2018-05-02T06:51:28.400Z,98861.41
2018-05-02T06:53:55.968Z,98856.25
2018-05-02T06:56:23.520Z,98849.84
2018-05-02T06:58:51.105Z,98847.98
2018-05-02T07:01:18.657Z,98845.05
2018-05-02T07:03:46.272Z,98838.88
2018-05-02T07:06:13.832Z,98841.58
2018-05-02T07:08:41.392Z,98841.20
2018-05-02T07:11:08.972Z,98837.23
2018-05-02T07:13:36.605Z,98846.12
2018-05-02T07:16:04.270Z,98850.79
2018-05-02T07:18:31.836Z,98846.88
2018-05-02T07:20:59.424Z,98844.20
2018-05-02T07:23:27.191Z,98852.01
2018-05-02T07:25:54.762Z,98856.96
2018-05-02T07:28:22.385Z,98861.31
2018-05-02T07:30:49.952Z,98858.16
2018-05-02T07:33:17.769Z,98852.71
2018-05-02T07:35:45.373Z,98849.06
2018-05-02T07:38:13.100Z,98852.30
2018-05-02T07:40:40.713Z,98848.13
2018-05-02T07:43:08.433Z,98849.64
2018-05-02T07:45:35.988Z,98848.50
2018-05-02T07:48:03.742Z,98843.98
2018-05-02T07:50:31.400Z,98846.47
2018-05-02T07:52:58.985Z,98842.51
2018-05-02T07:55:26.678Z,98841.83
2018-05-02T07:57:54.268Z,98835.64
2018-05-02T08:00:21.829Z,98843.72
2018-05-02T08:02:49.583Z,98841.55
2018-05-02T08:05:17.214Z,98839.91
2018-05-02T08:07:44.776Z,98840.08
2018-05-02T08:10:12.498Z,98838.37
2018-05-02T08:12:40.057Z,98829.46
2018-05-02T08:15:07.669Z,98828.34
2018-05-02T08:17:35.224Z,98828.66
2018-05-02T08:20:02.783Z,98821.08
2018-05-02T08:22:30.464Z,98819.42
2018-05-02T08:24:58.244Z,98813.50
2018-05-02T08:27:25.816Z,98810.88
2018-05-02T08:29:53.581Z,98808.20
2018-05-02T08:32:21.188Z,98807.30
2018-05-02T08:34:48.748Z,98806.92
2018-05-02T08:37:16.533Z,98806.98
2018-05-02T08:39:44.149Z,98802.48
2018-05-02T08:42:11.701Z,98798.68
2018-05-02T08:44:39.273Z,98802.16
2018-05-02T08:47:07.007Z,98799.15
2018-05-02T08:49:34.824Z,98797.11
2018-05-02T08:52:02.380Z,98796.22
2018-05-02T08:54:29.937Z,98797.39
2018-05-02T08:56:57.678Z,98793.12
2018-05-02T08:59:25.465Z,98792.52
2018-05-02T09:01:53.096Z,98761.61
2018-05-02T09:04:20.676Z,98791.42
2018-05-02T09:06:49.184Z,98798.35
2018-05-02T09:09:16.745Z,98799.09
2018-05-02T09:11:44.297Z,98798.52
2018-05-02T09:14:11.897Z,98794.42
2018-05-02T09:16:39.625Z,98785.77
2018-05-02T09:19:07.195Z,98792.53
2018-05-02T09:21:34.750Z,98786.17
2018-05-02T09:24:02.337Z,98790.30
2018-05-02T09:26:29.960Z,98794.42
2018-05-02T09:28:57.718Z,98781.77
2018-05-02T09:31:25.310Z,98784.05
2018-05-02T09:33:52.868Z,98781.30
2018-05-02T09:36:20.476Z,98781.55
2018-05-02T09:38:48.289Z,98784.72
2018-05-02T09:41:15.979Z,98784.44
2018-05-02T09:43:43.697Z,98777.41
2018-05-02T09:46:11.412Z,98774.19
2018-05-02T09:48:38.980Z,98779.59
2018-05-02T09:51:06.541Z,98777.69
2018-05-02T09:53:34.164Z,98777.77
2018-05-02T09:56:01.818Z,98776.63
2018-05-02T09:58:29.372Z,98775.45
2018-05-02T10:00:57.061Z,98771.80
2018-05-02T10:03:24.620Z,98774.23
2018-05-02T10:05:52.371Z,98772.94
2018-05-02T10:08:20.103Z,98772.34
2018-05-02T10:10:47.813Z,98773.00
2018-05-02T10:13:15.446Z,98775.17
2018-05-02T10:15:43.012Z,98774.52
2018-05-02T10:18:10.577Z,98771.63
2018-05-02T10:20:38.178Z,98763.49
2018-05-02T10:23:06.016Z,98766.86
2018-05-02T10:25:33.617Z,98753.81
2018-05-02T10:28:01.318Z,98760.59
2018-05-02T10:30:28.916Z,98758.89
2018-05-02T10:32:56.473Z,98762.00
2018-05-02T10:35:24.092Z,98758.47
2018-05-02T10:37:51.919Z,98754.38
2018-05-02T10:40:19.738Z,98753.56
2018-05-02T10:42:47.459Z,98755.42
2018-05-02T10:45:15.075Z,98752.08
2018-05-02T10:47:42.648Z,98753.44
2018-05-02T10:50:10.279Z,98753.98
2018-05-02T10:52:37.999Z,98751.20
2018-05-02T10:55:05.559Z,98750.78
2018-05-02T10:57:33.134Z,98749.91
2018-05-02T11:00:00.742Z,98746.06
2018-05-02T11:02:28.424Z,98739.08
2018-05-02T11:04:56.120Z,98739.66
2018-05-02T11:07:23.678Z,98742.48
2018-05-02T11:09:52.602Z,98740.73
2018-05-02T11:12:20.212Z,98739.12
2018-05-02T11:14:47.783Z,98741.13
2018-05-02T11:17:15.538Z,98734.54
2018-05-02T11:19:43.132Z,98738.29
2018-05-02T11:22:10.728Z,98730.59
2018-05-02T11:24:38.281Z,98735.80
2018-05-02T11:27:06.249Z,98732.33
2018-05-02T11:29:33.804Z,98734.55
2018-05-02T11:32:01.375Z,98730.55
2018-05-02T11:34:28.999Z,98725.02
2018-05-02T11:36:56.624Z,98721.81
2018-05-02T11:39:24.179Z,98723.70
2018-05-02T11:41:51.865Z,98715.34
2018-05-02T11:44:19.449Z,98715.47
2018-05-02T11:46:46.986Z,98711.30
2018-05-02T11:49:14.729Z,98703.08
2018-05-02T11:51:42.697Z,98699.37
2018-05-02T11:54:10.318Z,98693.98
2018-05-02T11:56:38.005Z,98702.61
2018-05-02T11:59:05.563Z,98696.16
2018-05-02T12:01:33.146Z,98695.48
2018-05-02T12:04:00.689Z,98690.78
2018-05-02T12:06:28.260Z,98686.12
2018-05-02T12:08:55.834Z,98685.70
2018-05-02T12:11:23.426Z,98683.02
2018-05-02T12:13:51.038Z,98678.34
2018-05-02T12:16:18.766Z,98678.73
2018-05-02T12:18:46.318Z,98676.59
2018-05-02T12:21:13.894Z,98671.62
2018-05-02T12:23:41.464Z,98668.26
2018-05-02T12:26:09.136Z,98668.13
2018-05-02T12:28:36.823Z,98658.33
2018-05-02T12:31:04.408Z,98663.16
2018-05-02T12:33:31.957Z,98660.08
2018-05-02T12:35:59.582Z,98653.90
2018-05-02T12:38:27.189Z,98643.17
2018-05-02T12:40:54.839Z,98635.66
2018-05-02T12:43:22.438Z,98637.83
2018-05-02T12:45:50.053Z,98622.41
2018-05-02T12:48:17.624Z,98630.59
2018-05-02T12:50:45.183Z,98621.58
2018-05-02T12:53:12.814Z,98626.02
2018-05-02T12:55:40.380Z,98613.65
2018-05-02T12:58:07.994Z,98618.44
2018-05-02T13:00:35.563Z,98614.16
2018-05-02T13:03:03.229Z,98623.16
2018-05-02T13:05:30.845Z,98606.52
2018-05-02T13:07:58.414Z,98612.00
2018-05-02T13:10:25.996Z,98612.68
2018-05-02T13:12:53.617Z,98597.59
2018-05-02T13:15:21.230Z,98596.87
2018-05-02T13:17:48.911Z,98595.95
2018-05-02T13:20:16.521Z,98605.59
2018-05-02T13:22:44.181Z,98606.00
2018-05-02T13:25:11.722Z,98592.30
2018-05-02T13:27:39.374Z,98583.36
2018-05-02T13:30:06.944Z,98582.53
2018-05-02T13:32:34.495Z,98571.23
2018-05-02T13:35:02.127Z,98582.09
2018-05-02T13:37:29.736Z,98579.02
2018-05-02T13:39:57.404Z,98583.33
2018-05-02T13:42:25.017Z,98581.57
2018-05-02T13:44:52.614Z,98578.73
2018-05-02T13:47:20.169Z,98572.46
2018-05-02T13:49:47.836Z,98560.53
2018-05-02T13:52:15.410Z,98562.47
2018-05-02T13:54:43.259Z,98572.38
2018-05-02T13:57:10.880Z,98572.25
2018-05-02T13:59:38.608Z,98570.21
2018-05-02T14:02:06.320Z,98587.11
2018-05-02T14:04:33.884Z,98579.58
2018-05-02T14:07:01.447Z,98571.62
2018-05-02T14:09:29.077Z,98573.90
2018-05-02T14:11:56.809Z,98571.15
2018-05-02T14:14:24.481Z,98563.03
2018-05-02T14:16:52.249Z,98580.22
2018-05-02T14:19:19.822Z,98568.40
2018-05-02T14:21:47.388Z,98569.63
2018-05-02T14:24:14.954Z,98563.67
2018-05-02T14:26:42.505Z,98562.56
2018-05-02T14:29:10.056Z,98560.15
2018-05-02T14:31:37.851Z,98558.41
2018-05-02T14:34:05.505Z,98550.90
2018-05-02T14:36:33.079Z,98553.31
2018-05-02T14:39:00.702Z,98556.14
2018-05-02T14:41:28.257Z,98556.52
2018-05-02T14:43:55.823Z,98552.92
2018-05-02T14:46:23.392Z,98555.34
2018-05-02T14:48:51.034Z,98558.17
2018-05-02T14:51:18.584Z,98549.39
2018-05-02T14:53:46.180Z,98542.91
2018-05-02T14:56:13.765Z,98547.33
2018-05-02T14:58:41.345Z,98543.06
2018-05-02T15:01:08.920Z,98546.03
2018-05-02T15:03:36.542Z,98543.57
2018-05-02T15:06:04.233Z,98533.98
2018-05-02T15:08:31.861Z,98541.22
2018-05-02T15:10:59.540Z,98540.47
2018-05-02T15:13:27.125Z,98527.05
2018-05-02T15:15:54.701Z,98538.10
2018-05-02T15:18:22.342Z,98537.20
2018-05-02T15:20:49.895Z,98539.56
2018-05-02T15:23:17.504Z,98529.74
2018-05-02T15:25:45.255Z,98544.95
2018-05-02T15:28:13.071Z,98538.53
2018-05-02T15:30:40.789Z,98546.00
2018-05-02T15:33:08.502Z,98548.02
2018-05-02T15:35:36.149Z,98540.27
2018-05-02T15:38:03.832Z,98547.26
2018-05-02T15:40:31.393Z,98546.81
2018-05-02T15:42:59.178Z,98546.91
2018-05-02T15:45:26.805Z,98540.72
2018-05-02T15:47:54.445Z,98540.36
2018-05-02T15:50:22.140Z,98544.10
2018-05-02T15:52:49.785Z,98542.59
2018-05-02T15:55:17.560Z,98540.27
2018-05-02T15:57:45.390Z,98540.45
2018-05-02T16:00:12.976Z,98549.98
2018-05-02T16:02:40.538Z,98555.48
2018-05-02T16:05:08.140Z,98554.16
2018-05-02T16:07:35.828Z,98559.20
2018-05-02T16:10:03.520Z,98563.13
2018-05-02T16:12:31.183Z,98569.41
2018-05-02T16:14:58.903Z,98525.86
2018-05-02T16:17:26.729Z,98568.92
2018-05-02T16:19:54.320Z,98566.64
2018-05-02T16:22:21.889Z,98562.08
2018-05-02T16:24:49.440Z,98561.00
2018-05-02T16:27:17.079Z,98573.73
2018-05-02T16:29:44.689Z,98583.48
2018-05-02T16:32:12.301Z,98582.95
2018-05-02T16:34:39.956Z,98579.94
2018-05-02T16:37:07.589Z,98579.08
2018-05-02T16:39:35.148Z,98578.32
2018-05-02T16:42:02.757Z,98587.53
2018-05-02T16:44:30.453Z,98589.87
2018-05-02T16:46:58.070Z,98597.31
2018-05-02T16:49:25.681Z,98594.24
2018-05-02T16:51:53.305Z,98589.06
2018-05-02T16:54:20.978Z,98591.30
2018-05-02T16:56:48.536Z,98597.51
2018-05-02T16:59:16.163Z,98595.70
2018-05-02T17:01:43.853Z,98599.64
2018-05-02T17:04:11.531Z,98605.77
2018-05-02T17:06:39.034Z,98617.05
2018-05-02T17:09:06.656Z,98615.48
2018-05-02T17:11:34.290Z,98625.46
2018-05-02T17:14:01.934Z,98624.52
2018-05-02T17:16:29.517Z,98624.93
2018-05-02T17:18:57.382Z,98624.49
2018-05-02T17:21:24.998Z,98639.14
2018-05-02T17:23:52.555Z,98636.42
2018-05-02T17:26:20.117Z,98641.91
2018-05-02T17:28:47.751Z,98643.30
2018-05-02T17:31:15.319Z,98650.20
2018-05-02T17:33:42.931Z,98654.88
2018-05-02T17:36:10.596Z,98648.20
2018-05-02T17:38:38.217Z,98654.05
2018-05-02T17:41:05.808Z,98657.16
2018-05-02T17:43:33.396Z,98658.29
2018-05-02T17:46:01.021Z,98658.84
2018-05-02T17:48:28.632Z,98655.42
2018-05-02T17:50:56.189Z,98653.77
2018-05-02T17:53:23.744Z,98661.20
2018-05-02T17:55:51.294Z,98660.71
2018-05-02T17:58:18.854Z,98661.13
2018-05-02T18:00:46.504Z,98663.86
2018-05-02T18:03:14.224Z,98662.48
2018-05-02T18:05:42.019Z,98666.28
2018-05-02T18:08:09.713Z,98664.55
2018-05-02T18:10:37.275Z,98663.45
2018-05-02T18:13:04.959Z,98666.03
2018-05-02T18:15:32.533Z,98671.56
2018-05-02T18:18:00.101Z,98671.36
2018-05-02T18:20:27.729Z,98677.41
2018-05-02T18:22:55.327Z,98675.08
2018-05-02T18:25:22.914Z,98680.90
2018-05-02T18:27:50.474Z,98687.70
2018-05-02T18:30:18.035Z,98681.40
2018-05-02T18:32:45.707Z,98688.84
2018-05-02T18:35:13.435Z,98684.48
2018-05-02T18:37:41.114Z,98690.98
2018-05-02T18:40:08.972Z,98691.83
2018-05-02T18:42:36.557Z,98692.75
2018-05-02T18:45:04.157Z,98695.12
2018-05-02T18:47:31.799Z,98690.47
2018-05-02T18:49:59.372Z,98695.14
2018-05-02T18:52:26.946Z,98700.23
2018-05-02T18:54:54.497Z,98691.52
2018-05-02T18:57:22.186Z,98698.44
2018-05-02T18:59:49.917Z,98698.78
2018-05-02T19:02:17.477Z,98702.04
2018-05-02T19:04:45.152Z,98694.61
2018-05-02T19:07:12.721Z,98698.09
2018-05-02T19:09:40.469Z,98689.74
2018-05-02T19:12:08.056Z,98676.95
2018-05-02T19:14:35.665Z,98683.95
2018-05-02T19:17:03.260Z,98680.70
2018-05-02T19:19:36.386Z,98677.56
2018-05-02T19:22:04.200Z,98680.21
2018-05-02T19:24:37.472Z,98678.69
2018-05-02T19:27:05.134Z,98684.52
2018-05-02T19:29:32.763Z,98685.02
2018-05-02T19:32:05.770Z,98677.20
2018-05-02T19:34:33.526Z,98675.06
2018-05-02T19:37:01.139Z,98673.24
2018-05-02T19:39:28.728Z,98672.54
2018-05-02T19:42:02.013Z,98673.03
2018-05-02T19:44:29.819Z,98673.98
2018-05-02T19:46:57.389Z,98673.14
2018-05-02T19:49:24.965Z,98672.85
2018-05-02T19:51:58.148Z,98673.55
2018-05-02T19:54:25.758Z,98671.48
2018-05-02T19:56:53.370Z,98673.33
2018-05-02T19:59:21.119Z,98669.56
2018-05-02T20:01:54.192Z,98672.98
2018-05-02T20:04:21.906Z,98678.56
2018-05-02T20:06:49.468Z,98670.94
2018-05-02T20:09:22.650Z,98663.51
2018-05-02T20:11:55.897Z,98649.25
2018-05-02T20:14:23.715Z,98660.64
2018-05-02T20:16:51.532Z,98657.45
2018-05-02T20:19:19.075Z,98651.65
2018-05-02T20:21:46.640Z,98657.83
2018-05-02T20:24:14.192Z,98656.75
2018-05-02T20:26:42.008Z,98652.55
2018-05-02T20:29:09.612Z,98658.63
2018-05-02T20:31:37.441Z,98653.16
2018-05-02T20:34:04.997Z,98652.45
2018-05-02T20:36:32.578Z,98656.16
2018-05-02T20:39:00.133Z,98663.71
2018-05-02T20:41:27.694Z,98661.92
2018-05-02T20:43:55.398Z,98660.48
2018-05-02T20:46:23.164Z,98654.44
2018-05-02T20:48:50.771Z,98651.28
2018-05-02T20:51:18.589Z,98651.20
2018-05-02T20:53:46.157Z,98648.73
2018-05-02T20:56:13.921Z,98651.27
2018-05-02T20:58:41.639Z,98647.59
2018-05-02T21:01:09.204Z,98646.45
2018-05-02T21:03:36.761Z,98644.31
2018-05-02T21:06:04.388Z,98646.75
2018-05-02T21:08:32.111Z,98639.13
2018-05-02T21:10:59.668Z,98637.31
2018-05-02T21:13:27.232Z,98637.70
2018-05-02T21:15:54.940Z,98640.94
2018-05-02T21:18:22.574Z,98633.95
2018-05-02T21:20:50.106Z,98633.95
2018-05-02T21:23:17.919Z,98634.84
2018-05-02T21:25:45.488Z,98633.84
2018-05-02T21:28:13.131Z,98631.16
2018-05-02T21:30:40.842Z,98638.73
2018-05-02T21:33:08.381Z,98628.45
2018-05-02T21:35:35.988Z,98630.83
2018-05-02T21:38:03.694Z,98630.63
2018-05-02T21:40:31.251Z,98624.48
2018-05-02T21:42:59.065Z,98614.89
2018-05-02T21:45:26.631Z,98630.47
2018-05-02T21:47:54.236Z,98634.30
2018-05-02T21:50:21.792Z,98625.94
2018-05-02T21:52:49.341Z,98621.05
2018-05-02T21:55:17.153Z,98622.52
2018-05-02T21:57:44.713Z,98623.99
2018-05-02T22:00:12.468Z,98622.61
2018-05-02T22:02:40.192Z,98623.52
2018-05-02T22:05:07.804Z,98616.88
2018-05-02T22:07:35.365Z,98615.38
2018-05-02T22:10:03.162Z,98612.86
2018-05-02T22:12:30.737Z,98601.41
2018-05-02T22:14:58.293Z,98600.42
2018-05-02T22:17:25.984Z,98592.50
2018-05-02T22:19:53.550Z,98595.09
2018-05-02T22:22:21.352Z,98597.80
2018-05-02T22:24:48.900Z,98596.40
2018-05-02T22:27:16.452Z,98590.77
2018-05-02T22:29:44.017Z,98592.60
2018-05-02T22:32:11.572Z,98589.67
2018-05-02T22:34:39.133Z,98591.19
2018-05-02T22:37:06.823Z,98589.34
2018-05-02T22:39:34.441Z,98587.81
2018-05-02T22:42:02.196Z,98586.34
2018-05-02T22:44:29.792Z,98577.34
2018-05-02T22:46:57.368Z,98580.73
2018-05-02T22:49:24.924Z,98578.02
2018-05-02T22:51:52.488Z,98565.38
2018-05-02T22:54:20.044Z,98565.42
2018-05-02T22:56:47.656Z,98558.91
2018-05-02T22:59:15.306Z,98559.63
2018-05-02T23:01:42.856Z,98559.09
2018-05-02T23:04:10.656Z,98554.58
2018-05-02T23:06:38.212Z,98553.41
2018-05-02T23:09:05.776Z,98548.16
2018-05-02T23:11:33.331Z,98545.48
2018-05-02T23:14:01.132Z,98548.11
2018-05-02T23:16:28.700Z,98542.12
2018-05-02T23:18:56.260Z,98534.70
2018-05-02T23:21:23.813Z,98527.84
2018-05-02T23:23:51.517Z,98526.53
2018-05-02T23:26:19.076Z,98527.80
2018-05-02T23:28:46.628Z,98518.83
2018-05-02T23:31:14.346Z,98514.67
2018-05-02T23:33:41.972Z,98518.77
2018-05-02T23:36:09.516Z,98523.24
2018-05-02T23:38:37.100Z,98516.63
2018-05-02T23:41:04.670Z,98519.98
2018-05-02T23:43:32.236Z,98516.16
2018-05-02T23:45:59.809Z,98515.39
2018-05-02T23:48:27.564Z,98516.10
2018-05-02T23:50:55.297Z,98517.77
2018-05-02T23:53:22.861Z,98522.95
2018-05-02T23:55:50.429Z,98521.45
2018-05-02T23:58:18.032Z,98523.48
